Time;durP1;ratioP1;P1;durP2;ratioP2;P2;SDS_P1;SDS_P2;PMS_P1;PMS_P2;Temp;Humidity;BMP_temperature;BMP_pressure;BME280_temperature;BME280_humidity;BME280_pressure;Samples;Min_cycle;Max_cycle;Signal;HPM_P1;HPM_P2
2022/02/20 00:00:31;;;;;;;0.20;0.20;;;;;;;;;;4994527;28;20197;-76
2022/02/20 00:02:59;;;;;;;0.70;0.70;;;;;;;;;;4991279;28;20223;-76
2022/02/20 00:05:26;;;;;;;0.17;0.10;;;;;;;;;;4990684;28;20193;-75
2022/02/20 00:07:54;;;;;;;0.20;0.20;;;;;;;;;;4991920;28;20200;-75
2022/02/20 00:10:22;;;;;;;0.00;0.00;;;;;;;;;;4989407;28;20205;-76
2022/02/20 00:12:50;;;;;;;0.00;0.00;;;;;;;;;;4991148;28;20819;-75
2022/02/20 00:15:17;;;;;;;0.07;0.07;;;;;;;;;;4991040;28;20201;-75
2022/02/20 00:17:48;;;;;;;0.00;0.00;;;;;;;;;;4991072;28;20204;-76
2022/02/20 00:20:16;;;;;;;0.00;0.00;;;;;;;;;;4991745;28;20297;-79
2022/02/20 00:22:43;;;;;;;0.10;0.10;;;;;;;;;;4990666;28;20221;-74
2022/02/20 00:25:11;;;;;;;0.07;0.07;;;;;;;;;;4994501;28;20205;-76
2022/02/20 00:27:40;;;;;;;0.13;0.13;;;;;;;;;;4994680;28;20201;-76
2022/02/20 00:30:07;;;;;;;0.10;0.10;;;;;;;;;;4994279;28;20205;-76
2022/02/20 00:32:35;;;;;;;0.00;0.00;;;;;;;;;;4992413;28;20980;-75
2022/02/20 00:35:02;;;;;;;0.00;0.00;;;;;;;;;;4991441;28;20201;-75
2022/02/20 00:37:30;;;;;;;0.17;0.17;;;;;;;;;;4991067;28;21577;-76
2022/02/20 00:39:57;;;;;;;0.00;0.00;;;;;;;;;;4992985;28;20198;-75
2022/02/20 00:42:24;;;;;;;0.00;0.00;;;;;;;;;;4993089;28;20240;-76
2022/02/20 00:44:53;;;;;;;1.30;0.30;;;;;;;;;;4993674;28;20211;-76
2022/02/20 00:47:20;;;;;;;0.00;0.00;;;;;;;;;;4993330;28;20806;-77
2022/02/20 00:49:48;;;;;;;0.33;0.27;;;;;;;;;;4990934;28;20200;-75
2022/02/20 00:52:15;;;;;;;0.23;0.23;;;;;;;;;;4991474;28;20198;-77
2022/02/20 00:54:42;;;;;;;0.00;0.00;;;;;;;;;;4991602;28;20721;-76
2022/02/20 00:57:10;;;;;;;0.00;0.00;;;;;;;;;;4995400;28;20212;-75
2022/02/20 00:59:37;;;;;;;0.43;0.20;;;;;;;;;;4993252;28;20204;-75
2022/02/20 01:02:06;;;;;;;0.00;0.00;;;;;;;;;;4997249;28;20992;-75
2022/02/20 01:04:33;;;;;;;0.00;0.00;;;;;;;;;;4996330;28;21470;-75
2022/02/20 01:07:01;;;;;;;0.00;0.00;;;;;;;;;;4996722;28;20208;-75
2022/02/20 01:09:28;;;;;;;0.10;0.10;;;;;;;;;;4997097;28;20193;-76
2022/02/20 01:11:55;;;;;;;0.00;0.00;;;;;;;;;;4995149;28;20212;-76
2022/02/20 01:14:23;;;;;;;0.00;0.00;;;;;;;;;;4996049;28;20570;-74
2022/02/20 01:16:50;;;;;;;0.03;0.03;;;;;;;;;;4995503;28;20209;-76
2022/02/20 01:19:19;;;;;;;0.00;0.00;;;;;;;;;;4995971;28;20200;-75
2022/02/20 01:21:46;;;;;;;0.00;0.00;;;;;;;;;;4996900;28;20201;-76
2022/02/20 01:24:14;;;;;;;0.00;0.00;;;;;;;;;;4996980;28;20208;-75
2022/02/20 01:26:42;;;;;;;0.00;0.00;;;;;;;;;;4998274;28;20216;-74
2022/02/20 01:29:10;;;;;;;0.00;0.00;;;;;;;;;;4999563;28;20197;-74
2022/02/20 01:31:37;;;;;;;0.00;0.00;;;;;;;;;;4997655;28;20204;-74
2022/02/20 01:34:04;;;;;;;0.00;0.00;;;;;;;;;;4996037;28;20205;-74
2022/02/20 01:36:33;;;;;;;0.00;0.00;;;;;;;;;;4995019;28;20541;-74
2022/02/20 01:39:00;;;;;;;0.00;0.00;;;;;;;;;;4995489;28;20228;-74
2022/02/20 01:41:28;;;;;;;0.00;0.00;;;;;;;;;;4994889;28;20212;-75
2022/02/20 01:43:55;;;;;;;0.00;0.00;;;;;;;;;;4996106;28;20225;-75
2022/02/20 01:46:23;;;;;;;0.00;0.00;;;;;;;;;;4994058;28;20205;-77
2022/02/20 01:48:50;;;;;;;0.00;0.00;;;;;;;;;;4995606;28;20197;-75
2022/02/20 01:51:17;;;;;;;0.00;0.00;;;;;;;;;;5003440;28;20212;-74
2022/02/20 01:53:46;;;;;;;0.00;0.00;;;;;;;;;;5003707;28;20212;-76
2022/02/20 01:56:14;;;;;;;0.00;0.00;;;;;;;;;;5000935;28;20622;-76
2022/02/20 01:58:42;;;;;;;0.00;0.00;;;;;;;;;;5002642;28;20204;-76
2022/02/20 02:01:09;;;;;;;0.13;0.13;;;;;;;;;;5003533;28;20709;-76
2022/02/20 02:03:37;;;;;;;0.00;0.00;;;;;;;;;;5001626;28;21147;-76
2022/02/20 02:06:05;;;;;;;0.00;0.00;;;;;;;;;;5002461;28;20216;-76
2022/02/20 02:08:32;;;;;;;0.00;0.00;;;;;;;;;;5001675;28;20209;-77
2022/02/20 02:11:01;;;;;;;0.10;0.10;;;;;;;;;;5001544;28;20204;-76
2022/02/20 02:13:28;;;;;;;0.10;0.10;;;;;;;;;;4998860;28;20648;-76
2022/02/20 02:15:56;;;;;;;0.00;0.00;;;;;;;;;;5002727;28;20224;-76
2022/02/20 02:18:23;;;;;;;0.00;0.00;;;;;;;;;;4998415;28;20205;-77
2022/02/20 02:20:51;;;;;;;0.00;0.00;;;;;;;;;;4999449;28;20198;-76
2022/02/20 02:23:19;;;;;;;2.67;2.47;;;;;;;;;;4993701;28;20613;-76
2022/02/20 02:25:49;;;;;;;0.00;0.00;;;;;;;;;;4993685;28;20193;-75
2022/02/20 02:28:17;;;;;;;0.00;0.00;;;;;;;;;;5000036;28;20197;-75
2022/02/20 02:30:44;;;;;;;0.40;0.40;;;;;;;;;;4997023;28;20197;-76
2022/02/20 02:33:11;;;;;;;0.00;0.00;;;;;;;;;;4995915;28;20201;-77
2022/02/20 02:35:39;;;;;;;0.00;0.00;;;;;;;;;;4993866;28;20669;-76
2022/02/20 02:38:06;;;;;;;0.87;0.53;;;;;;;;;;4993773;28;20201;-75
2022/02/20 02:40:35;;;;;;;0.50;0.50;;;;;;;;;;4995465;28;20205;-75
2022/02/20 02:43:02;;;;;;;1.17;1.07;;;;;;;;;;4994107;28;20233;-75
2022/02/20 02:45:29;;;;;;;0.33;0.33;;;;;;;;;;4996037;28;22154;-75
2022/02/20 02:47:57;;;;;;;0.50;0.30;;;;;;;;;;4993461;28;20197;-75
2022/02/20 02:50:24;;;;;;;1.90;1.23;;;;;;;;;;4993660;28;20704;-75
2022/02/20 02:52:51;;;;;;;1.27;0.40;;;;;;;;;;4993880;28;20193;-74
2022/02/20 02:55:19;;;;;;;0.00;0.00;;;;;;;;;;4993147;28;20758;-75
2022/02/20 02:57:48;;;;;;;0.50;0.50;;;;;;;;;;5000835;28;20209;-76
2022/02/20 03:00:15;;;;;;;6.23;3.97;;;;;;;;;;5000409;28;20197;-76
2022/02/20 03:02:43;;;;;;;0.03;0.03;;;;;;;;;;5000545;28;20244;-74
2022/02/20 03:05:11;;;;;;;0.13;0.13;;;;;;;;;;4999138;28;20205;-75
2022/02/20 03:07:39;;;;;;;0.77;0.77;;;;;;;;;;5003213;28;20209;-75
2022/02/20 03:10:07;;;;;;;0.00;0.00;;;;;;;;;;4999276;28;20196;-76
2022/02/20 03:12:34;;;;;;;0.83;0.40;;;;;;;;;;5001563;28;20198;-77
2022/02/20 03:15:03;;;;;;;6.60;0.40;;;;;;;;;;5001734;28;20204;-75
2022/02/20 03:17:31;;;;;;;0.20;0.20;;;;;;;;;;4999541;28;20663;-75
2022/02/20 03:19:58;;;;;;;0.43;0.37;;;;;;;;;;5000552;28;20196;-75
2022/02/20 03:22:25;;;;;;;2.57;0.20;;;;;;;;;;5003503;28;20201;-75
2022/02/20 03:24:53;;;;;;;0.37;0.37;;;;;;;;;;4999205;28;20209;-76
2022/02/20 03:27:20;;;;;;;0.00;0.00;;;;;;;;;;5004752;28;20209;-76
2022/02/20 03:29:47;;;;;;;0.00;0.00;;;;;;;;;;5001188;28;20197;-76
2022/02/20 03:32:16;;;;;;;6.03;1.07;;;;;;;;;;5002946;28;20677;-76
2022/02/20 03:34:43;;;;;;;1.60;0.50;;;;;;;;;;5001220;28;20224;-76
2022/02/20 03:37:11;;;;;;;0.10;0.10;;;;;;;;;;4999649;28;20216;-76
2022/02/20 03:39:38;;;;;;;0.10;0.10;;;;;;;;;;5002063;28;20208;-76
2022/02/20 03:42:06;;;;;;;4.87;1.17;;;;;;;;;;5000373;28;20209;-75
2022/02/20 03:44:33;;;;;;;1.47;0.70;;;;;;;;;;5000098;28;20283;-75
2022/02/20 03:47:00;;;;;;;0.00;0.00;;;;;;;;;;4999299;28;20202;-76
2022/02/20 03:49:29;;;;;;;3.13;0.90;;;;;;;;;;4999258;28;20574;-74
2022/02/20 03:51:56;;;;;;;0.40;0.37;;;;;;;;;;5002374;28;20204;-76
2022/02/20 03:54:24;;;;;;;0.60;0.17;;;;;;;;;;5001438;28;20205;-75
2022/02/20 03:56:51;;;;;;;1.13;1.13;;;;;;;;;;5000129;28;20574;-75
2022/02/20 03:59:18;;;;;;;0.00;0.00;;;;;;;;;;5002087;28;20204;-77
2022/02/20 04:01:46;;;;;;;0.77;0.43;;;;;;;;;;5001635;28;20243;-75
2022/02/20 04:04:13;;;;;;;5.70;1.93;;;;;;;;;;4998254;28;20229;-77
2022/02/20 04:06:42;;;;;;;0.50;0.33;;;;;;;;;;4998474;28;20867;-75
2022/02/20 04:09:12;;;;;;;1.13;0.67;;;;;;;;;;4999771;28;20219;-75
2022/02/20 04:11:39;;;;;;;0.50;0.50;;;;;;;;;;5002996;28;20205;-77
2022/02/20 04:14:06;;;;;;;0.77;0.63;;;;;;;;;;5003217;28;20197;-76
2022/02/20 04:16:34;;;;;;;2.20;1.13;;;;;;;;;;4997546;28;20211;-77
2022/02/20 04:19:01;;;;;;;0.30;0.30;;;;;;;;;;5000103;28;20754;-77
2022/02/20 04:21:28;;;;;;;3.23;0.40;;;;;;;;;;4997919;28;20682;-75
2022/02/20 04:23:57;;;;;;;1.07;1.03;;;;;;;;;;4998487;28;20239;-76
2022/02/20 04:26:25;;;;;;;6.83;1.47;;;;;;;;;;4998826;28;20666;-77
2022/02/20 04:28:53;;;;;;;3.60;1.63;;;;;;;;;;4995261;28;20396;-77
2022/02/20 04:31:20;;;;;;;0.20;0.20;;;;;;;;;;4999225;28;20205;-78
2022/02/20 04:33:48;;;;;;;5.13;1.27;;;;;;;;;;5000170;28;20200;-78
2022/02/20 04:36:15;;;;;;;2.00;0.77;;;;;;;;;;5002936;28;20204;-77
2022/02/20 04:38:43;;;;;;;4.03;0.93;;;;;;;;;;5002660;28;20212;-76
2022/02/20 04:41:12;;;;;;;1.70;0.50;;;;;;;;;;5005653;28;20215;-77
2022/02/20 04:43:39;;;;;;;0.47;0.47;;;;;;;;;;5005263;28;20217;-78
2022/02/20 04:46:06;;;;;;;6.93;6.27;;;;;;;;;;5003989;28;20193;-77
2022/02/20 04:48:34;;;;;;;0.00;0.00;;;;;;;;;;5004197;28;21611;-77
2022/02/20 04:51:01;;;;;;;4.17;1.37;;;;;;;;;;5004561;28;20193;-78
2022/02/20 04:53:28;;;;;;;0.20;0.20;;;;;;;;;;5004850;28;20197;-78
2022/02/20 04:55:56;;;;;;;1.33;1.23;;;;;;;;;;5004059;28;20670;-78
2022/02/20 04:58:24;;;;;;;1.43;0.83;;;;;;;;;;5004790;28;20205;-78
2022/02/20 05:00:52;;;;;;;4.90;1.43;;;;;;;;;;5003521;28;20232;-80
2022/02/20 05:03:19;;;;;;;2.93;1.40;;;;;;;;;;5003104;28;20229;-81
2022/02/20 05:05:46;;;;;;;6.47;1.20;;;;;;;;;;5001250;28;20208;-80
2022/02/20 05:08:14;;;;;;;1.40;1.00;;;;;;;;;;5000865;28;20201;-80
2022/02/20 05:10:41;;;;;;;1.50;1.13;;;;;;;;;;5000870;28;21496;-81
2022/02/20 05:13:09;;;;;;;8.30;2.47;;;;;;;;;;5001425;28;20220;-80
2022/02/20 05:15:37;;;;;;;0.83;0.50;;;;;;;;;;4999652;28;20202;-81
2022/02/20 05:18:05;;;;;;;4.30;1.57;;;;;;;;;;5003143;28;20205;-80
2022/02/20 05:20:32;;;;;;;5.60;0.93;;;;;;;;;;5003571;28;20202;-79
2022/02/20 05:22:59;;;;;;;0.20;0.20;;;;;;;;;;5001227;28;20227;-79
2022/02/20 05:25:27;;;;;;;0.40;0.40;;;;;;;;;;5005845;28;20761;-79
2022/02/20 05:27:54;;;;;;;0.57;0.53;;;;;;;;;;5005217;28;20205;-80
2022/02/20 05:30:21;;;;;;;0.20;0.20;;;;;;;;;;5002491;28;20212;-78
2022/02/20 05:32:50;;;;;;;0.73;0.43;;;;;;;;;;5005239;28;20296;-80
2022/02/20 05:35:18;;;;;;;3.00;0.57;;;;;;;;;;5001405;28;20205;-78
2022/02/20 05:37:46;;;;;;;2.50;1.70;;;;;;;;;;5003065;28;20205;-78
2022/02/20 05:40:14;;;;;;;0.17;0.17;;;;;;;;;;5001374;28;20198;-78
2022/02/20 05:42:41;;;;;;;0.10;0.10;;;;;;;;;;4996500;28;20205;-78
2022/02/20 05:45:09;;;;;;;0.10;0.10;;;;;;;;;;5001672;28;20237;-78
2022/02/20 05:47:37;;;;;;;1.43;0.60;;;;;;;;;;5003424;28;20228;-78
2022/02/20 05:50:07;;;;;;;0.10;0.10;;;;;;;;;;5001572;28;20263;-78
2022/02/20 05:52:34;;;;;;;0.20;0.10;;;;;;;;;;4997925;28;20201;-78
2022/02/20 05:55:02;;;;;;;4.07;0.53;;;;;;;;;;5000696;28;20200;-81
2022/02/20 05:57:29;;;;;;;1.40;0.93;;;;;;;;;;4999264;28;20206;-80
2022/02/20 05:59:56;;;;;;;0.73;0.73;;;;;;;;;;5000508;28;20197;-79
2022/02/20 06:02:24;;;;;;;4.93;1.13;;;;;;;;;;4999440;28;20228;-80
2022/02/20 06:04:51;;;;;;;0.30;0.30;;;;;;;;;;5000138;28;20220;-79
2022/02/20 06:07:20;;;;;;;2.37;1.97;;;;;;;;;;4997022;28;20204;-79
2022/02/20 06:09:47;;;;;;;0.20;0.20;;;;;;;;;;5000951;28;20260;-81
2022/02/20 06:12:15;;;;;;;0.77;0.77;;;;;;;;;;4998743;28;20237;-82
2022/02/20 06:14:43;;;;;;;2.33;0.87;;;;;;;;;;5000008;28;20240;-79
2022/02/20 06:17:10;;;;;;;0.60;0.57;;;;;;;;;;4998636;28;20204;-83
2022/02/20 06:19:38;;;;;;;5.30;1.97;;;;;;;;;;4997446;28;20193;-83
2022/02/20 06:22:05;;;;;;;1.40;1.13;;;;;;;;;;4997269;28;20705;-81
2022/02/20 06:24:34;;;;;;;1.07;0.73;;;;;;;;;;5003588;28;20239;-80
2022/02/20 06:27:01;;;;;;;4.03;1.80;;;;;;;;;;5004677;28;20204;-80
2022/02/20 06:29:28;;;;;;;3.50;1.43;;;;;;;;;;5000852;28;20208;-79
2022/02/20 06:31:56;;;;;;;0.73;0.73;;;;;;;;;;5001815;28;20201;-81
2022/02/20 06:34:23;;;;;;;1.50;0.60;;;;;;;;;;5003475;28;20198;-79
2022/02/20 06:36:50;;;;;;;0.83;0.80;;;;;;;;;;5003371;28;20543;-80
2022/02/20 06:39:18;;;;;;;2.53;0.80;;;;;;;;;;5002231;28;20328;-79
2022/02/20 06:41:47;;;;;;;4.87;1.67;;;;;;;;;;5002147;28;20193;-80
2022/02/20 06:44:14;;;;;;;0.67;0.67;;;;;;;;;;5001720;28;20225;-79
2022/02/20 06:46:43;;;;;;;3.30;2.10;;;;;;;;;;5001510;28;20197;-78
2022/02/20 06:49:10;;;;;;;0.93;0.30;;;;;;;;;;4999403;28;20295;-82
2022/02/20 06:51:38;;;;;;;1.63;0.77;;;;;;;;;;4999150;28;20197;-79
2022/02/20 06:54:06;;;;;;;4.43;1.40;;;;;;;;;;5000266;28;20236;-81
2022/02/20 06:56:33;;;;;;;1.73;1.33;;;;;;;;;;5000601;28;20209;-79
2022/02/20 06:59:02;;;;;;;1.13;1.03;;;;;;;;;;4998801;28;20209;-79
2022/02/20 07:01:29;;;;;;;5.97;2.03;;;;;;;;;;5004658;28;20736;-79
2022/02/20 07:03:57;;;;;;;0.20;0.20;;;;;;;;;;5002124;28;20235;-79
2022/02/20 07:06:25;;;;;;;5.17;1.07;;;;;;;;;;4999808;28;20194;-80
2022/02/20 07:08:54;;;;;;;2.40;1.00;;;;;;;;;;5002169;28;20204;-79
2022/02/20 07:11:22;;;;;;;2.37;0.33;;;;;;;;;;5002856;28;20629;-78
2022/02/20 07:13:49;;;;;;;4.13;1.40;;;;;;;;;;4996952;28;20636;-81
2022/02/20 07:16:18;;;;;;;0.87;0.83;;;;;;;;;;4994528;28;20203;-80
2022/02/20 07:18:46;;;;;;;1.10;0.47;;;;;;;;;;4999639;28;20209;-78
2022/02/20 07:21:13;;;;;;;3.87;2.57;;;;;;;;;;4995572;28;20201;-78
2022/02/20 07:23:40;;;;;;;7.10;2.27;;;;;;;;;;5000353;28;20196;-78
2022/02/20 07:26:08;;;;;;;2.13;0.67;;;;;;;;;;4996836;28;20570;-76
2022/02/20 07:28:35;;;;;;;0.83;0.47;;;;;;;;;;5005361;28;20208;-83
2022/02/20 07:31:02;;;;;;;0.73;0.73;;;;;;;;;;4997729;28;20209;-77
2022/02/20 07:33:31;;;;;;;11.77;1.50;;;;;;;;;;4997413;28;20204;-77
2022/02/20 07:35:58;;;;;;;0.40;0.40;;;;;;;;;;4997022;28;20201;-76
2022/02/20 07:38:26;;;;;;;7.43;1.03;;;;;;;;;;4997217;28;20202;-79
2022/02/20 07:40:53;;;;;;;0.50;0.50;;;;;;;;;;5002291;28;20684;-78
2022/02/20 07:43:21;;;;;;;1.47;1.37;;;;;;;;;;5001628;28;20201;-77
2022/02/20 07:45:49;;;;;;;14.77;4.07;;;;;;;;;;4996273;28;20677;-79
2022/02/20 07:48:16;;;;;;;1.07;0.97;;;;;;;;;;5011596;28;20200;-77
2022/02/20 07:50:45;;;;;;;2.70;1.70;;;;;;;;;;4997261;28;20206;-78
2022/02/20 07:53:12;;;;;;;8.57;2.13;;;;;;;;;;4997254;28;20224;-76
2022/02/20 07:55:40;;;;;;;0.17;0.17;;;;;;;;;;4997816;28;20201;-77
2022/02/20 07:58:11;;;;;;;7.33;2.17;;;;;;;;;;4993769;28;21181;-76
2022/02/20 08:00:38;;;;;;;2.43;1.37;;;;;;;;;;4994863;28;20669;-78
2022/02/20 08:03:06;;;;;;;0.97;0.67;;;;;;;;;;4999463;28;20199;-78
2022/02/20 08:05:33;;;;;;;7.63;1.27;;;;;;;;;;4997986;28;20220;-75
2022/02/20 08:08:02;;;;;;;6.83;2.17;;;;;;;;;;4995514;28;20202;-80
2022/02/20 08:10:29;;;;;;;3.50;2.17;;;;;;;;;;4996127;28;20201;-79
2022/02/20 08:12:56;;;;;;;3.77;2.60;;;;;;;;;;4997166;28;20246;-77
2022/02/20 08:15:24;;;;;;;2.87;1.10;;;;;;;;;;4998787;28;20204;-75
2022/02/20 08:17:51;;;;;;;3.67;1.47;;;;;;;;;;4990763;28;20752;-78
2022/02/20 08:20:19;;;;;;;1.13;0.60;;;;;;;;;;5000036;28;20202;-78
2022/02/20 08:22:47;;;;;;;4.37;2.00;;;;;;;;;;4999476;28;20201;-76
2022/02/20 08:25:15;;;;;;;4.63;2.20;;;;;;;;;;4995345;28;20229;-76
2022/02/20 08:27:43;;;;;;;10.93;4.23;;;;;;;;;;4997314;28;20209;-76
2022/02/20 08:30:12;;;;;;;2.57;0.90;;;;;;;;;;4995963;28;20197;-79
2022/02/20 08:32:40;;;;;;;3.53;1.70;;;;;;;;;;4996093;28;20530;-80
2022/02/20 08:35:09;;;;;;;15.53;2.97;;;;;;;;;;4998449;28;20201;-80
2022/02/20 08:37:37;;;;;;;12.43;2.83;;;;;;;;;;5000106;28;20575;-75
2022/02/20 08:40:06;;;;;;;7.00;1.77;;;;;;;;;;5006120;28;20201;-73
2022/02/20 08:42:35;;;;;;;7.63;2.77;;;;;;;;;;5003149;28;20201;-73
2022/02/20 08:45:03;;;;;;;6.17;2.60;;;;;;;;;;5011086;28;20720;-76
2022/02/20 08:47:30;;;;;;;15.23;3.00;;;;;;;;;;5007614;28;20201;-73
2022/02/20 08:49:58;;;;;;;5.23;2.10;;;;;;;;;;5003103;28;20757;-78
2022/02/20 08:52:26;;;;;;;5.00;1.70;;;;;;;;;;4998926;28;20685;-76
2022/02/20 08:54:53;;;;;;;15.53;1.93;;;;;;;;;;4998519;28;20216;-76
2022/02/20 08:57:21;;;;;;;0.20;0.20;;;;;;;;;;5000441;28;20206;-76
2022/02/20 08:59:50;;;;;;;2.37;2.07;;;;;;;;;;5000037;28;20216;-75
2022/02/20 09:02:17;;;;;;;5.33;1.63;;;;;;;;;;4998374;28;21681;-77
2022/02/20 09:04:44;;;;;;;16.20;1.83;;;;;;;;;;5000376;28;20229;-76
2022/02/20 09:07:12;;;;;;;9.17;2.77;;;;;;;;;;5000050;28;20209;-75
2022/02/20 09:09:39;;;;;;;3.33;2.70;;;;;;;;;;4999183;28;20228;-76
2022/02/20 09:12:07;;;;;;;8.07;3.47;;;;;;;;;;5001323;28;20213;-76
2022/02/20 09:14:34;;;;;;;17.47;4.83;;;;;;;;;;5000505;28;20224;-76
2022/02/20 09:17:03;;;;;;;11.40;2.30;;;;;;;;;;4999843;28;20667;-80
2022/02/20 09:19:31;;;;;;;5.57;2.37;;;;;;;;;;4997699;28;20205;-77
2022/02/20 09:22:07;;;;;;;10.00;3.30;;;;;;;;;;4998368;28;20672;-82
2022/02/20 09:24:35;;;;;;;1.53;1.13;;;;;;;;;;5004292;28;20198;-81
2022/02/20 09:27:03;;;;;;;8.80;2.13;;;;;;;;;;5002800;28;20693;-76
2022/02/20 09:29:33;;;;;;;9.00;3.20;;;;;;;;;;5002963;28;20263;-75
2022/02/20 09:32:02;;;;;;;13.27;1.70;;;;;;;;;;5004128;28;20218;-75
2022/02/20 09:34:30;;;;;;;18.40;3.20;;;;;;;;;;5004838;28;20216;-78
2022/02/20 09:36:57;;;;;;;9.33;1.90;;;;;;;;;;5005998;28;20213;-79
2022/02/20 09:39:24;;;;;;;8.17;1.80;;;;;;;;;;5002895;28;20586;-75
2022/02/20 09:41:52;;;;;;;3.47;1.63;;;;;;;;;;4999659;28;20197;-75
2022/02/20 09:44:19;;;;;;;4.30;2.20;;;;;;;;;;5003421;28;20205;-74
2022/02/20 09:46:47;;;;;;;13.07;3.13;;;;;;;;;;5004930;28;20857;-76
2022/02/20 09:49:16;;;;;;;4.70;1.57;;;;;;;;;;5003831;28;20228;-75
2022/02/20 09:51:44;;;;;;;7.43;2.57;;;;;;;;;;5001776;28;20263;-75
2022/02/20 09:54:11;;;;;;;6.57;2.07;;;;;;;;;;5001848;28;20241;-75
2022/02/20 09:56:39;;;;;;;5.63;1.73;;;;;;;;;;5003047;28;20678;-75
2022/02/20 09:59:07;;;;;;;8.60;2.43;;;;;;;;;;5010393;28;20292;-77
2022/02/20 10:01:34;;;;;;;2.57;2.37;;;;;;;;;;5010800;28;20256;-76
2022/02/20 10:04:11;;;;;;;11.23;1.57;;;;;;;;;;5012840;28;20201;-75
2022/02/20 10:06:48;;;;;;;7.13;2.23;;;;;;;;;;5012902;28;20236;-75
2022/02/20 10:09:21;;;;;;;6.00;1.77;;;;;;;;;;5007085;28;20205;-75
2022/02/20 10:11:48;;;;;;;8.20;2.13;;;;;;;;;;5011086;28;20518;-76
2022/02/20 10:14:17;;;;;;;9.37;2.33;;;;;;;;;;5011582;28;20302;-79
2022/02/20 10:16:45;;;;;;;10.77;3.00;;;;;;;;;;5005106;28;20216;-77
2022/02/20 10:19:13;;;;;;;2.17;1.57;;;;;;;;;;5018336;28;20211;-75
2022/02/20 10:21:42;;;;;;;7.23;1.67;;;;;;;;;;5009397;28;20201;-74
2022/02/20 10:24:10;;;;;;;3.30;1.53;;;;;;;;;;5011903;28;20211;-77
2022/02/20 10:26:42;;;;;;;13.67;3.07;;;;;;;;;;5008361;28;20232;-75
2022/02/20 10:29:11;;;;;;;9.43;2.30;;;;;;;;;;4999649;28;20213;-79
2022/02/20 10:31:48;;;;;;;15.40;3.23;;;;;;;;;;5003156;28;20209;-79
2022/02/20 10:34:17;;;;;;;10.00;3.20;;;;;;;;;;5003000;28;20189;-77
2022/02/20 10:36:53;;;;;;;3.00;0.57;;;;;;;;;;5002642;28;20684;-77
2022/02/20 10:39:21;;;;;;;7.53;1.50;;;;;;;;;;5002610;28;20213;-73
2022/02/20 10:41:49;;;;;;;3.50;1.23;;;;;;;;;;5002514;28;20534;-75
2022/02/20 10:44:16;;;;;;;3.23;0.93;;;;;;;;;;5001949;28;21076;-75
2022/02/20 10:46:43;;;;;;;8.53;1.93;;;;;;;;;;5003625;28;20237;-76
2022/02/20 10:49:22;;;;;;;2.93;2.23;;;;;;;;;;5001440;28;20220;-70
2022/02/20 10:51:50;;;;;;;4.03;1.33;;;;;;;;;;5002042;28;20209;-74
2022/02/20 10:54:19;;;;;;;11.13;2.47;;;;;;;;;;5005102;28;20205;-71
2022/02/20 10:56:50;;;;;;;9.57;1.73;;;;;;;;;;5016200;28;20269;-72
2022/02/20 10:59:20;;;;;;;8.63;3.20;;;;;;;;;;5013248;28;20213;-80
2022/02/20 11:01:48;;;;;;;5.67;2.37;;;;;;;;;;5002087;28;20352;-68
2022/02/20 11:04:16;;;;;;;5.80;2.33;;;;;;;;;;5003552;28;20255;-71
2022/02/20 11:06:44;;;;;;;7.53;2.53;;;;;;;;;;5001209;28;20217;-70
2022/02/20 11:09:13;;;;;;;7.57;2.43;;;;;;;;;;5000609;28;20718;-70
2022/02/20 11:11:52;;;;;;;9.13;2.27;;;;;;;;;;5007850;28;21001;-70
2022/02/20 11:14:21;;;;;;;3.07;1.83;;;;;;;;;;5013812;28;20212;-73
2022/02/20 11:16:49;;;;;;;5.37;2.10;;;;;;;;;;5002399;28;20535;-73
2022/02/20 11:19:17;;;;;;;4.13;1.67;;;;;;;;;;5002546;28;20205;-73
2022/02/20 11:21:45;;;;;;;9.57;2.83;;;;;;;;;;5001398;28;20232;-74
2022/02/20 11:24:13;;;;;;;12.07;2.47;;;;;;;;;;5001987;28;20209;-74
2022/02/20 11:26:44;;;;;;;7.87;2.03;;;;;;;;;;5001754;28;20236;-73
2022/02/20 11:29:11;;;;;;;3.77;1.53;;;;;;;;;;5001868;28;20213;-70
2022/02/20 11:31:40;;;;;;;6.13;1.87;;;;;;;;;;4999805;28;20209;-72
2022/02/20 11:34:08;;;;;;;26.03;3.30;;;;;;;;;;5002311;28;20576;-73
2022/02/20 11:36:36;;;;;;;8.93;2.67;;;;;;;;;;5002383;28;20248;-72
2022/02/20 11:39:06;;;;;;;6.80;1.23;;;;;;;;;;5002382;28;20210;-74
2022/02/20 11:41:34;;;;;;;17.50;3.60;;;;;;;;;;5001343;28;20297;-74
2022/02/20 11:44:16;;;;;;;7.43;2.87;;;;;;;;;;5002257;28;20662;-74
2022/02/20 11:46:48;;;;;;;7.47;2.90;;;;;;;;;;5000181;28;20255;-74
2022/02/20 11:49:29;;;;;;;5.00;2.70;;;;;;;;;;5000171;28;20687;-74
2022/02/20 11:51:57;;;;;;;5.07;1.97;;;;;;;;;;5002324;28;20211;-73
2022/02/20 11:54:25;;;;;;;0.73;0.50;;;;;;;;;;5002375;28;20642;-73
2022/02/20 11:57:07;;;;;;;7.93;2.97;;;;;;;;;;5000691;28;20205;-73
2022/02/20 11:59:36;;;;;;;3.93;1.83;;;;;;;;;;5000155;28;20224;-73
2022/02/20 12:02:12;;;;;;;5.10;2.33;;;;;;;;;;5001264;28;20247;-73
2022/02/20 12:04:57;;;;;;;2.07;1.23;;;;;;;;;;5000398;28;20291;-75
2022/02/20 12:07:31;;;;;;;11.67;2.67;;;;;;;;;;4999681;28;20242;-73
2022/02/20 12:10:13;;;;;;;3.30;1.60;;;;;;;;;;5000128;28;20198;-73
2022/02/20 12:12:40;;;;;;;16.90;2.43;;;;;;;;;;5000803;28;20204;-73
2022/02/20 12:15:28;;;;;;;8.27;3.30;;;;;;;;;;5002342;28;20303;-71
2022/02/20 12:18:01;;;;;;;7.30;4.67;;;;;;;;;;5000655;28;20785;-72
2022/02/20 12:20:43;;;;;;;5.47;2.27;;;;;;;;;;5000998;28;20212;-78
2022/02/20 12:23:11;;;;;;;8.37;2.13;;;;;;;;;;5001552;28;20586;-74
2022/02/20 12:25:38;;;;;;;7.33;2.00;;;;;;;;;;5000523;28;20237;-78
2022/02/20 12:28:11;;;;;;;2.73;1.43;;;;;;;;;;5001666;28;20212;-71
2022/02/20 12:30:40;;;;;;;5.73;2.60;;;;;;;;;;5001593;28;20271;-75
2022/02/20 12:33:07;;;;;;;3.87;2.00;;;;;;;;;;5002782;28;20209;-71
2022/02/20 12:35:34;;;;;;;10.27;1.37;;;;;;;;;;5000674;28;20650;-69
2022/02/20 12:38:05;;;;;;;6.93;2.07;;;;;;;;;;5000956;28;20212;-69
2022/02/20 12:40:34;;;;;;;3.30;1.30;;;;;;;;;;5001126;28;20214;-70
2022/02/20 12:43:03;;;;;;;6.13;1.47;;;;;;;;;;5000935;28;20201;-70
2022/02/20 12:45:31;;;;;;;7.27;1.67;;;;;;;;;;5001685;28;20205;-70
2022/02/20 12:48:01;;;;;;;8.07;2.47;;;;;;;;;;4999897;28;20220;-70
2022/02/20 12:50:29;;;;;;;4.40;3.00;;;;;;;;;;5000749;28;20201;-70
2022/02/20 12:52:57;;;;;;;5.93;1.70;;;;;;;;;;5000563;28;20205;-71
2022/02/20 12:55:25;;;;;;;10.07;2.30;;;;;;;;;;5001249;28;20203;-73
2022/02/20 12:57:58;;;;;;;4.37;1.07;;;;;;;;;;5003170;28;20574;-74
2022/02/20 13:00:27;;;;;;;0.83;0.70;;;;;;;;;;5003682;28;20210;-74
2022/02/20 13:02:57;;;;;;;1.90;0.37;;;;;;;;;;5005199;28;20202;-74
2022/02/20 13:05:30;;;;;;;1.93;0.83;;;;;;;;;;5006924;28;20586;-73
2022/02/20 13:07:59;;;;;;;2.00;0.50;;;;;;;;;;5003177;28;20209;-76
2022/02/20 13:10:28;;;;;;;3.93;1.73;;;;;;;;;;5003720;28;20752;-73
2022/02/20 13:13:13;;;;;;;0.80;0.50;;;;;;;;;;5005985;28;20216;-77
2022/02/20 13:15:41;;;;;;;1.23;1.03;;;;;;;;;;5002718;28;20215;-77
2022/02/20 13:18:12;;;;;;;12.33;3.47;;;;;;;;;;5003329;28;20217;-77
2022/02/20 13:20:43;;;;;;;3.13;2.63;;;;;;;;;;5000751;28;20693;-76
2022/02/20 13:23:16;;;;;;;4.90;0.83;;;;;;;;;;5003656;28;20657;-71
2022/02/20 13:25:44;;;;;;;2.17;1.40;;;;;;;;;;5005118;28;20674;-71
2022/02/20 13:28:14;;;;;;;1.80;1.70;;;;;;;;;;5003526;28;20198;-71
2022/02/20 13:30:42;;;;;;;1.67;0.60;;;;;;;;;;5004164;28;20219;-74
2022/02/20 13:33:11;;;;;;;0.40;0.40;;;;;;;;;;5000589;28;20205;-77
2022/02/20 13:35:39;;;;;;;2.53;1.40;;;;;;;;;;5004362;28;20567;-72
2022/02/20 13:38:08;;;;;;;1.60;0.60;;;;;;;;;;5011074;28;20201;-70
2022/02/20 13:40:37;;;;;;;0.67;0.23;;;;;;;;;;5013443;28;20208;-69
2022/02/20 13:43:06;;;;;;;1.50;1.10;;;;;;;;;;5013888;28;20215;-70
2022/02/20 13:45:33;;;;;;;3.20;3.00;;;;;;;;;;5013734;28;20212;-71
2022/02/20 13:48:01;;;;;;;2.10;1.33;;;;;;;;;;5013944;28;20589;-71
2022/02/20 13:50:28;;;;;;;1.87;1.67;;;;;;;;;;5012038;28;20209;-72
2022/02/20 13:52:56;;;;;;;0.00;0.00;;;;;;;;;;5019082;28;20666;-71
2022/02/20 13:55:27;;;;;;;0.90;0.60;;;;;;;;;;5013341;28;20212;-72
2022/02/20 13:57:58;;;;;;;5.67;1.70;;;;;;;;;;5011621;28;20638;-72
2022/02/20 14:00:25;;;;;;;0.30;0.30;;;;;;;;;;5015532;28;20228;-71
2022/02/20 14:02:53;;;;;;;0.00;0.00;;;;;;;;;;5021955;28;20200;-71
2022/02/20 14:05:23;;;;;;;5.47;1.47;;;;;;;;;;5010094;28;20217;-72
2022/02/20 14:07:51;;;;;;;7.73;1.07;;;;;;;;;;5002291;28;20221;-72
2022/02/20 14:10:18;;;;;;;0.77;0.77;;;;;;;;;;5002103;28;20252;-72
2022/02/20 14:12:48;;;;;;;5.83;5.37;;;;;;;;;;5002542;28;20209;-72
2022/02/20 14:15:18;;;;;;;1.40;0.80;;;;;;;;;;5002290;28;20872;-72
2022/02/20 14:17:46;;;;;;;1.57;1.23;;;;;;;;;;5003207;28;20219;-74
2022/02/20 14:20:14;;;;;;;0.63;0.63;;;;;;;;;;5002373;28;20754;-71
2022/02/20 14:22:42;;;;;;;3.70;0.90;;;;;;;;;;5002501;28;20259;-71
2022/02/20 14:25:10;;;;;;;0.30;0.20;;;;;;;;;;5002587;28;20217;-72
2022/02/20 14:27:41;;;;;;;0.57;0.27;;;;;;;;;;5002800;28;20220;-71
2022/02/20 14:30:11;;;;;;;1.90;0.63;;;;;;;;;;5001367;28;20205;-71
2022/02/20 14:32:38;;;;;;;0.53;0.53;;;;;;;;;;5002020;28;20205;-72
2022/02/20 14:35:19;;;;;;;3.40;1.30;;;;;;;;;;5003172;28;20207;-73
2022/02/20 14:37:46;;;;;;;0.27;0.20;;;;;;;;;;5001932;28;20213;-72
2022/02/20 14:40:14;;;;;;;0.87;0.87;;;;;;;;;;5002119;28;20208;-71
2022/02/20 14:42:41;;;;;;;1.07;0.53;;;;;;;;;;5001721;28;20214;-74
2022/02/20 14:45:11;;;;;;;1.07;0.47;;;;;;;;;;5002454;28;20213;-70
2022/02/20 14:47:38;;;;;;;1.20;0.83;;;;;;;;;;5001070;28;20229;-71
2022/02/20 14:50:06;;;;;;;0.10;0.10;;;;;;;;;;5000557;28;20215;-71